EGVP

Middle Wallop Airfield Airport

Middle Wallop, United Kingdom
METAR EGVP 200837Z 21010KT 9999 BKN007 17/15 Q1021 GRN BECMG SCT018 WHT
Observed Flight Rules
Jun-20 @ 08:37 UTC (36 minutes ago) Instrument Flight Rules
Wind Visibility Clouds
210° at 10 knots 10,000+ meters
  • Broken at 700' AGL
Temperatures Readings
Current 17°C / 63°F
Dewpoint 15°C / 59°F
Humidity 88%
Altimeter 30.15" Hg
Pressure 1021 hPa
Elevation 91
METAR EGVP 200837Z 21010KT 9999 BKN007 17/15 Q1021 GRN BECMG SCT018 WHT
Observed Flight Rules
Jun-20 @ 08:37 UTC
(36 minutes ago)
IFR
Wind Visibility
210° at 10 knots 10,000+ meters
Clouds
  • Broken at 700' AGL
Temperature Dewpoint
17°C / 63°F 15°C / 59°F
Humidity Altimeter Pressure
88% 30.15" Hg 1021 hPa